sensor_id;sensor_type;location;lat;lon;timestamp;P1;durP1;ratioP1;P2;durP2;ratioP2
3261;SDS011;1643;47.746;9.000;2024-01-16T00:01:11;7.40;;;4.13;;
3261;SDS011;1643;47.746;9.000;2024-01-16T00:03:39;5.23;;;3.50;;
3261;SDS011;1643;47.746;9.000;2024-01-16T00:06:04;3.53;;;2.93;;
3261;SDS011;1643;47.746;9.000;2024-01-16T00:08:31;5.20;;;3.17;;
3261;SDS011;1643;47.746;9.000;2024-01-16T00:10:57;5.53;;;3.27;;
3261;SDS011;1643;47.746;9.000;2024-01-16T00:13:23;6.13;;;3.40;;
3261;SDS011;1643;47.746;9.000;2024-01-16T00:15:48;5.80;;;3.13;;
3261;SDS011;1643;47.746;9.000;2024-01-16T00:18:14;9.43;;;3.60;;
3261;SDS011;1643;47.746;9.000;2024-01-16T00:20:41;5.83;;;3.40;;
3261;SDS011;1643;47.746;9.000;2024-01-16T00:23:06;5.40;;;3.37;;
3261;SDS011;1643;47.746;9.000;2024-01-16T00:25:32;6.60;;;3.57;;
3261;SDS011;1643;47.746;9.000;2024-01-16T00:27:58;9.40;;;2.90;;
3261;SDS011;1643;47.746;9.000;2024-01-16T00:30:23;7.10;;;3.43;;
3261;SDS011;1643;47.746;9.000;2024-01-16T00:32:49;4.40;;;3.33;;
3261;SDS011;1643;47.746;9.000;2024-01-16T00:35:14;4.13;;;3.07;;
3261;SDS011;1643;47.746;9.000;2024-01-16T00:37:40;5.13;;;2.40;;
3261;SDS011;1643;47.746;9.000;2024-01-16T00:40:06;7.53;;;3.43;;
3261;SDS011;1643;47.746;9.000;2024-01-16T00:42:34;6.10;;;3.33;;
3261;SDS011;1643;47.746;9.000;2024-01-16T00:44:59;3.90;;;3.27;;
3261;SDS011;1643;47.746;9.000;2024-01-16T00:47:25;4.20;;;2.77;;
3261;SDS011;1643;47.746;9.000;2024-01-16T00:49:51;4.60;;;3.10;;
3261;SDS011;1643;47.746;9.000;2024-01-16T00:52:16;6.13;;;3.07;;
3261;SDS011;1643;47.746;9.000;2024-01-16T00:54:42;4.50;;;2.73;;
3261;SDS011;1643;47.746;9.000;2024-01-16T00:57:08;3.90;;;2.70;;
3261;SDS011;1643;47.746;9.000;2024-01-16T00:59:34;3.93;;;2.30;;
3261;SDS011;1643;47.746;9.000;2024-01-16T01:01:59;4.00;;;3.07;;
3261;SDS011;1643;47.746;9.000;2024-01-16T01:04:25;4.60;;;2.90;;
3261;SDS011;1643;47.746;9.000;2024-01-16T01:06:51;4.50;;;3.00;;
3261;SDS011;1643;47.746;9.000;2024-01-16T01:09:16;7.53;;;2.83;;
3261;SDS011;1643;47.746;9.000;2024-01-16T01:11:42;3.50;;;2.90;;
3261;SDS011;1643;47.746;9.000;2024-01-16T01:14:08;3.60;;;2.40;;
3261;SDS011;1643;47.746;9.000;2024-01-16T01:16:34;5.67;;;2.83;;
3261;SDS011;1643;47.746;9.000;2024-01-16T01:18:59;6.17;;;3.40;;
3261;SDS011;1643;47.746;9.000;2024-01-16T01:21:25;4.87;;;3.00;;
3261;SDS011;1643;47.746;9.000;2024-01-16T01:23:51;4.57;;;3.00;;
3261;SDS011;1643;47.746;9.000;2024-01-16T01:26:17;3.77;;;2.60;;
3261;SDS011;1643;47.746;9.000;2024-01-16T01:28:45;3.80;;;3.00;;
3261;SDS011;1643;47.746;9.000;2024-01-16T01:31:11;6.23;;;2.70;;
3261;SDS011;1643;47.746;9.000;2024-01-16T01:33:37;3.47;;;3.17;;
3261;SDS011;1643;47.746;9.000;2024-01-16T01:36:03;4.13;;;2.90;;
3261;SDS011;1643;47.746;9.000;2024-01-16T01:38:29;5.50;;;2.90;;
3261;SDS011;1643;47.746;9.000;2024-01-16T01:40:54;4.93;;;2.80;;
3261;SDS011;1643;47.746;9.000;2024-01-16T01:43:21;5.13;;;3.00;;
3261;SDS011;1643;47.746;9.000;2024-01-16T01:46:08;6.03;;;3.50;;
3261;SDS011;1643;47.746;9.000;2024-01-16T01:48:40;4.13;;;2.43;;
3261;SDS011;1643;47.746;9.000;2024-01-16T01:51:06;6.30;;;2.70;;
3261;SDS011;1643;47.746;9.000;2024-01-16T01:53:33;4.10;;;2.83;;
3261;SDS011;1643;47.746;9.000;2024-01-16T01:56:01;4.30;;;2.90;;
3261;SDS011;1643;47.746;9.000;2024-01-16T01:58:30;4.37;;;2.77;;
3261;SDS011;1643;47.746;9.000;2024-01-16T02:00:57;4.67;;;2.10;;
3261;SDS011;1643;47.746;9.000;2024-01-16T02:03:23;4.17;;;2.80;;
3261;SDS011;1643;47.746;9.000;2024-01-16T02:05:52;3.60;;;2.50;;
3261;SDS011;1643;47.746;9.000;2024-01-16T02:08:18;4.27;;;2.90;;
3261;SDS011;1643;47.746;9.000;2024-01-16T02:10:45;3.60;;;2.70;;
3261;SDS011;1643;47.746;9.000;2024-01-16T02:13:12;2.70;;;2.30;;
3261;SDS011;1643;47.746;9.000;2024-01-16T02:15:46;2.77;;;2.30;;
3261;SDS011;1643;47.746;9.000;2024-01-16T02:18:11;6.43;;;2.97;;
3261;SDS011;1643;47.746;9.000;2024-01-16T02:20:37;4.07;;;2.57;;
3261;SDS011;1643;47.746;9.000;2024-01-16T02:23:03;3.67;;;3.03;;
3261;SDS011;1643;47.746;9.000;2024-01-16T02:25:29;4.67;;;2.70;;
3261;SDS011;1643;47.746;9.000;2024-01-16T02:27:55;4.20;;;2.80;;
3261;SDS011;1643;47.746;9.000;2024-01-16T02:30:21;4.00;;;2.73;;
3261;SDS011;1643;47.746;9.000;2024-01-16T02:32:47;3.20;;;2.20;;
3261;SDS011;1643;47.746;9.000;2024-01-16T02:35:12;2.50;;;2.30;;
3261;SDS011;1643;47.746;9.000;2024-01-16T02:37:38;5.47;;;3.30;;
3261;SDS011;1643;47.746;9.000;2024-01-16T02:40:04;3.33;;;2.23;;
3261;SDS011;1643;47.746;9.000;2024-01-16T02:42:33;5.50;;;3.10;;
3261;SDS011;1643;47.746;9.000;2024-01-16T02:44:59;3.97;;;2.47;;
3261;SDS011;1643;47.746;9.000;2024-01-16T02:47:25;3.80;;;2.97;;
3261;SDS011;1643;47.746;9.000;2024-01-16T02:49:50;4.80;;;2.70;;
3261;SDS011;1643;47.746;9.000;2024-01-16T02:52:16;4.47;;;2.97;;
3261;SDS011;1643;47.746;9.000;2024-01-16T02:54:42;4.97;;;3.10;;
3261;SDS011;1643;47.746;9.000;2024-01-16T02:57:07;2.73;;;1.97;;
3261;SDS011;1643;47.746;9.000;2024-01-16T02:59:33;2.70;;;2.30;;
3261;SDS011;1643;47.746;9.000;2024-01-16T03:01:58;4.27;;;3.10;;
3261;SDS011;1643;47.746;9.000;2024-01-16T03:04:24;2.93;;;2.40;;
3261;SDS011;1643;47.746;9.000;2024-01-16T03:06:50;3.20;;;2.57;;
3261;SDS011;1643;47.746;9.000;2024-01-16T03:09:15;4.20;;;3.10;;
3261;SDS011;1643;47.746;9.000;2024-01-16T03:11:41;4.73;;;2.73;;
3261;SDS011;1643;47.746;9.000;2024-01-16T03:14:06;3.43;;;2.17;;
3261;SDS011;1643;47.746;9.000;2024-01-16T03:16:32;4.20;;;2.43;;
3261;SDS011;1643;47.746;9.000;2024-01-16T03:18:58;6.30;;;3.10;;
3261;SDS011;1643;47.746;9.000;2024-01-16T03:21:23;5.03;;;3.03;;
3261;SDS011;1643;47.746;9.000;2024-01-16T03:23:49;5.73;;;3.07;;
3261;SDS011;1643;47.746;9.000;2024-01-16T03:26:15;6.00;;;3.37;;
3261;SDS011;1643;47.746;9.000;2024-01-16T03:28:41;4.80;;;3.40;;
3261;SDS011;1643;47.746;9.000;2024-01-16T03:31:07;4.50;;;3.10;;
3261;SDS011;1643;47.746;9.000;2024-01-16T03:33:33;4.57;;;3.00;;
3261;SDS011;1643;47.746;9.000;2024-01-16T03:35:59;5.17;;;2.80;;
3261;SDS011;1643;47.746;9.000;2024-01-16T03:38:25;3.60;;;2.67;;
3261;SDS011;1643;47.746;9.000;2024-01-16T03:40:51;5.73;;;2.63;;
3261;SDS011;1643;47.746;9.000;2024-01-16T03:43:17;5.03;;;3.40;;
3261;SDS011;1643;47.746;9.000;2024-01-16T03:45:43;3.33;;;2.70;;
3261;SDS011;1643;47.746;9.000;2024-01-16T03:48:09;4.03;;;2.50;;
3261;SDS011;1643;47.746;9.000;2024-01-16T03:50:35;5.00;;;2.50;;
3261;SDS011;1643;47.746;9.000;2024-01-16T03:53:01;3.90;;;2.40;;
3261;SDS011;1643;47.746;9.000;2024-01-16T03:55:29;3.50;;;2.67;;
3261;SDS011;1643;47.746;9.000;2024-01-16T03:57:55;7.90;;;4.70;;
3261;SDS011;1643;47.746;9.000;2024-01-16T04:00:21;5.60;;;4.20;;
3261;SDS011;1643;47.746;9.000;2024-01-16T04:02:47;3.60;;;2.90;;
3261;SDS011;1643;47.746;9.000;2024-01-16T04:05:12;4.80;;;3.50;;
3261;SDS011;1643;47.746;9.000;2024-01-16T04:07:38;5.77;;;3.00;;
3261;SDS011;1643;47.746;9.000;2024-01-16T04:10:05;4.07;;;2.60;;
3261;SDS011;1643;47.746;9.000;2024-01-16T04:12:31;6.00;;;3.30;;
3261;SDS011;1643;47.746;9.000;2024-01-16T04:14:57;4.30;;;2.63;;
3261;SDS011;1643;47.746;9.000;2024-01-16T04:17:23;7.63;;;2.47;;
3261;SDS011;1643;47.746;9.000;2024-01-16T04:19:48;2.87;;;2.50;;
3261;SDS011;1643;47.746;9.000;2024-01-16T04:22:14;3.63;;;2.80;;
3261;SDS011;1643;47.746;9.000;2024-01-16T04:24:40;3.20;;;2.83;;
3261;SDS011;1643;47.746;9.000;2024-01-16T04:27:05;5.20;;;3.30;;
3261;SDS011;1643;47.746;9.000;2024-01-16T04:29:31;7.57;;;3.90;;
3261;SDS011;1643;47.746;9.000;2024-01-16T04:31:57;4.90;;;3.03;;
3261;SDS011;1643;47.746;9.000;2024-01-16T04:34:23;5.47;;;3.63;;
3261;SDS011;1643;47.746;9.000;2024-01-16T04:36:49;5.10;;;3.13;;
3261;SDS011;1643;47.746;9.000;2024-01-16T04:39:14;3.93;;;2.77;;
3261;SDS011;1643;47.746;9.000;2024-01-16T04:41:40;3.33;;;3.03;;
3261;SDS011;1643;47.746;9.000;2024-01-16T04:44:06;5.43;;;3.47;;
3261;SDS011;1643;47.746;9.000;2024-01-16T04:46:31;4.57;;;3.10;;
3261;SDS011;1643;47.746;9.000;2024-01-16T04:48:57;4.13;;;3.20;;
3261;SDS011;1643;47.746;9.000;2024-01-16T04:51:22;4.83;;;3.30;;
3261;SDS011;1643;47.746;9.000;2024-01-16T04:53:48;6.67;;;3.47;;
3261;SDS011;1643;47.746;9.000;2024-01-16T04:56:14;5.30;;;3.73;;
3261;SDS011;1643;47.746;9.000;2024-01-16T04:58:39;14.33;;;8.20;;
3261;SDS011;1643;47.746;9.000;2024-01-16T05:01:05;13.30;;;9.50;;
3261;SDS011;1643;47.746;9.000;2024-01-16T05:03:30;13.50;;;9.90;;
3261;SDS011;1643;47.746;9.000;2024-01-16T05:05:56;13.43;;;8.87;;
3261;SDS011;1643;47.746;9.000;2024-01-16T05:08:22;11.53;;;7.10;;
3261;SDS011;1643;47.746;9.000;2024-01-16T05:10:48;8.87;;;4.73;;
3261;SDS011;1643;47.746;9.000;2024-01-16T05:13:13;4.67;;;3.53;;
3261;SDS011;1643;47.746;9.000;2024-01-16T05:15:40;5.00;;;3.80;;
3261;SDS011;1643;47.746;9.000;2024-01-16T05:18:07;5.73;;;4.20;;
3261;SDS011;1643;47.746;9.000;2024-01-16T05:20:32;5.53;;;3.37;;
3261;SDS011;1643;47.746;9.000;2024-01-16T05:22:58;5.87;;;3.30;;
3261;SDS011;1643;47.746;9.000;2024-01-16T05:25:24;5.33;;;3.70;;
3261;SDS011;1643;47.746;9.000;2024-01-16T05:27:49;6.33;;;3.80;;
3261;SDS011;1643;47.746;9.000;2024-01-16T05:30:15;5.97;;;4.10;;
3261;SDS011;1643;47.746;9.000;2024-01-16T05:32:41;9.37;;;6.20;;
3261;SDS011;1643;47.746;9.000;2024-01-16T05:35:07;14.73;;;7.73;;
3261;SDS011;1643;47.746;9.000;2024-01-16T05:37:34;16.67;;;9.23;;
3261;SDS011;1643;47.746;9.000;2024-01-16T05:40:00;9.60;;;5.50;;
3261;SDS011;1643;47.746;9.000;2024-01-16T05:42:28;8.70;;;5.00;;
3261;SDS011;1643;47.746;9.000;2024-01-16T05:44:53;5.93;;;3.73;;
3261;SDS011;1643;47.746;9.000;2024-01-16T05:47:19;6.60;;;3.67;;
3261;SDS011;1643;47.746;9.000;2024-01-16T05:49:45;5.40;;;3.43;;
3261;SDS011;1643;47.746;9.000;2024-01-16T05:52:10;8.97;;;4.37;;
3261;SDS011;1643;47.746;9.000;2024-01-16T05:54:36;6.17;;;3.77;;
3261;SDS011;1643;47.746;9.000;2024-01-16T05:57:02;7.03;;;3.00;;
3261;SDS011;1643;47.746;9.000;2024-01-16T05:59:28;4.23;;;3.30;;
3261;SDS011;1643;47.746;9.000;2024-01-16T06:01:56;7.77;;;3.77;;
3261;SDS011;1643;47.746;9.000;2024-01-16T06:04:21;6.80;;;3.80;;
3261;SDS011;1643;47.746;9.000;2024-01-16T06:06:47;4.90;;;3.40;;
3261;SDS011;1643;47.746;9.000;2024-01-16T06:09:13;10.10;;;3.83;;
3261;SDS011;1643;47.746;9.000;2024-01-16T06:11:41;4.70;;;3.50;;
3261;SDS011;1643;47.746;9.000;2024-01-16T06:14:07;5.03;;;3.77;;
3261;SDS011;1643;47.746;9.000;2024-01-16T06:16:34;4.33;;;3.23;;
3261;SDS011;1643;47.746;9.000;2024-01-16T06:18:59;7.23;;;3.70;;
3261;SDS011;1643;47.746;9.000;2024-01-16T06:21:25;5.43;;;3.40;;
3261;SDS011;1643;47.746;9.000;2024-01-16T06:23:51;5.00;;;3.30;;
3261;SDS011;1643;47.746;9.000;2024-01-16T06:26:17;6.50;;;3.07;;
3261;SDS011;1643;47.746;9.000;2024-01-16T06:28:42;7.10;;;3.60;;
3261;SDS011;1643;47.746;9.000;2024-01-16T06:31:08;3.73;;;3.03;;
3261;SDS011;1643;47.746;9.000;2024-01-16T06:33:34;7.00;;;4.50;;
3261;SDS011;1643;47.746;9.000;2024-01-16T06:36:01;6.63;;;4.20;;
3261;SDS011;1643;47.746;9.000;2024-01-16T06:38:30;6.70;;;4.60;;
3261;SDS011;1643;47.746;9.000;2024-01-16T06:40:56;7.87;;;5.00;;
3261;SDS011;1643;47.746;9.000;2024-01-16T06:43:23;8.40;;;4.63;;
3261;SDS011;1643;47.746;9.000;2024-01-16T06:45:49;7.03;;;4.03;;
3261;SDS011;1643;47.746;9.000;2024-01-16T06:48:15;7.50;;;4.60;;
3261;SDS011;1643;47.746;9.000;2024-01-16T06:50:41;6.60;;;4.40;;
3261;SDS011;1643;47.746;9.000;2024-01-16T06:53:06;5.90;;;4.53;;
3261;SDS011;1643;47.746;9.000;2024-01-16T06:55:32;6.10;;;3.90;;
3261;SDS011;1643;47.746;9.000;2024-01-16T06:57:58;6.30;;;4.70;;
3261;SDS011;1643;47.746;9.000;2024-01-16T07:00:24;7.43;;;3.73;;
3261;SDS011;1643;47.746;9.000;2024-01-16T07:02:52;7.67;;;4.63;;
3261;SDS011;1643;47.746;9.000;2024-01-16T07:05:19;7.07;;;4.47;;
3261;SDS011;1643;47.746;9.000;2024-01-16T07:07:45;5.83;;;3.87;;
3261;SDS011;1643;47.746;9.000;2024-01-16T07:10:10;5.53;;;3.97;;
3261;SDS011;1643;47.746;9.000;2024-01-16T07:12:43;7.57;;;4.53;;
3261;SDS011;1643;47.746;9.000;2024-01-16T07:15:10;7.63;;;4.63;;
3261;SDS011;1643;47.746;9.000;2024-01-16T07:17:35;7.40;;;4.70;;
3261;SDS011;1643;47.746;9.000;2024-01-16T07:20:01;16.53;;;4.90;;
3261;SDS011;1643;47.746;9.000;2024-01-16T07:22:27;6.57;;;4.70;;
3261;SDS011;1643;47.746;9.000;2024-01-16T07:24:53;7.83;;;4.10;;
3261;SDS011;1643;47.746;9.000;2024-01-16T07:27:19;6.13;;;3.40;;
3261;SDS011;1643;47.746;9.000;2024-01-16T07:29:44;6.80;;;4.20;;
3261;SDS011;1643;47.746;9.000;2024-01-16T07:32:10;7.63;;;4.60;;
3261;SDS011;1643;47.746;9.000;2024-01-16T07:34:36;8.10;;;4.00;;
3261;SDS011;1643;47.746;9.000;2024-01-16T07:37:01;4.63;;;4.10;;
3261;SDS011;1643;47.746;9.000;2024-01-16T07:39:27;6.43;;;3.90;;
3261;SDS011;1643;47.746;9.000;2024-01-16T07:41:53;5.67;;;4.00;;
3261;SDS011;1643;47.746;9.000;2024-01-16T07:44:18;6.70;;;3.57;;
3261;SDS011;1643;47.746;9.000;2024-01-16T07:46:44;8.47;;;4.33;;
3261;SDS011;1643;47.746;9.000;2024-01-16T07:49:10;6.47;;;4.27;;
3261;SDS011;1643;47.746;9.000;2024-01-16T07:51:35;7.53;;;5.17;;
3261;SDS011;1643;47.746;9.000;2024-01-16T07:54:05;8.70;;;4.43;;
3261;SDS011;1643;47.746;9.000;2024-01-16T07:56:32;4.63;;;3.90;;
3261;SDS011;1643;47.746;9.000;2024-01-16T07:58:58;8.07;;;5.53;;
3261;SDS011;1643;47.746;9.000;2024-01-16T08:01:24;7.30;;;5.13;;
3261;SDS011;1643;47.746;9.000;2024-01-16T08:03:50;12.73;;;7.03;;
3261;SDS011;1643;47.746;9.000;2024-01-16T08:06:15;10.70;;;6.40;;
3261;SDS011;1643;47.746;9.000;2024-01-16T08:08:42;11.23;;;5.57;;
3261;SDS011;1643;47.746;9.000;2024-01-16T08:11:08;6.47;;;4.43;;
3261;SDS011;1643;47.746;9.000;2024-01-16T08:13:34;7.13;;;4.87;;
3261;SDS011;1643;47.746;9.000;2024-01-16T08:15:59;12.20;;;5.80;;
3261;SDS011;1643;47.746;9.000;2024-01-16T08:18:25;10.27;;;5.20;;
3261;SDS011;1643;47.746;9.000;2024-01-16T08:20:51;6.50;;;4.17;;
3261;SDS011;1643;47.746;9.000;2024-01-16T08:23:17;17.93;;;11.03;;
3261;SDS011;1643;47.746;9.000;2024-01-16T08:25:42;43.53;;;18.77;;
3261;SDS011;1643;47.746;9.000;2024-01-16T08:28:09;34.27;;;15.83;;
3261;SDS011;1643;47.746;9.000;2024-01-16T08:30:35;10.50;;;6.50;;
3261;SDS011;1643;47.746;9.000;2024-01-16T08:33:00;10.73;;;6.13;;
3261;SDS011;1643;47.746;9.000;2024-01-16T08:35:26;11.03;;;6.70;;
3261;SDS011;1643;47.746;9.000;2024-01-16T08:37:52;9.83;;;6.30;;
3261;SDS011;1643;47.746;9.000;2024-01-16T08:40:18;10.07;;;5.20;;
3261;SDS011;1643;47.746;9.000;2024-01-16T08:42:43;12.40;;;6.30;;
3261;SDS011;1643;47.746;9.000;2024-01-16T08:45:09;10.47;;;5.93;;
3261;SDS011;1643;47.746;9.000;2024-01-16T08:47:35;9.00;;;5.80;;
3261;SDS011;1643;47.746;9.000;2024-01-16T08:50:00;7.50;;;5.10;;
3261;SDS011;1643;47.746;9.000;2024-01-16T08:52:27;11.30;;;5.57;;
3261;SDS011;1643;47.746;9.000;2024-01-16T08:54:52;9.13;;;4.23;;
3261;SDS011;1643;47.746;9.000;2024-01-16T08:57:18;8.80;;;4.27;;
3261;SDS011;1643;47.746;9.000;2024-01-16T08:59:44;9.80;;;5.50;;
3261;SDS011;1643;47.746;9.000;2024-01-16T09:02:09;8.60;;;5.50;;
3261;SDS011;1643;47.746;9.000;2024-01-16T09:04:35;10.23;;;4.67;;
3261;SDS011;1643;47.746;9.000;2024-01-16T09:07:01;8.03;;;4.50;;
3261;SDS011;1643;47.746;9.000;2024-01-16T09:09:29;7.77;;;4.70;;
3261;SDS011;1643;47.746;9.000;2024-01-16T09:11:55;11.37;;;5.80;;
3261;SDS011;1643;47.746;9.000;2024-01-16T09:14:23;6.97;;;4.53;;
3261;SDS011;1643;47.746;9.000;2024-01-16T09:16:48;7.97;;;5.47;;
3261;SDS011;1643;47.746;9.000;2024-01-16T09:19:14;12.10;;;6.87;;
3261;SDS011;1643;47.746;9.000;2024-01-16T09:21:39;7.63;;;4.60;;
3261;SDS011;1643;47.746;9.000;2024-01-16T09:24:05;5.83;;;4.43;;
3261;SDS011;1643;47.746;9.000;2024-01-16T09:26:31;7.67;;;4.60;;
3261;SDS011;1643;47.746;9.000;2024-01-16T09:28:56;5.77;;;4.67;;
3261;SDS011;1643;47.746;9.000;2024-01-16T09:31:22;7.77;;;5.13;;
3261;SDS011;1643;47.746;9.000;2024-01-16T09:33:48;5.90;;;4.33;;
3261;SDS011;1643;47.746;9.000;2024-01-16T09:36:13;11.17;;;5.63;;
3261;SDS011;1643;47.746;9.000;2024-01-16T09:38:40;9.27;;;4.83;;
3261;SDS011;1643;47.746;9.000;2024-01-16T09:41:06;10.80;;;5.80;;
3261;SDS011;1643;47.746;9.000;2024-01-16T09:43:32;8.53;;;5.50;;
3261;SDS011;1643;47.746;9.000;2024-01-16T09:46:02;5.97;;;3.80;;
3261;SDS011;1643;47.746;9.000;2024-01-16T09:48:30;9.07;;;5.80;;
3261;SDS011;1643;47.746;9.000;2024-01-16T09:50:56;7.20;;;4.67;;
3261;SDS011;1643;47.746;9.000;2024-01-16T09:53:23;9.50;;;5.20;;
3261;SDS011;1643;47.746;9.000;2024-01-16T09:55:49;11.00;;;6.10;;
3261;SDS011;1643;47.746;9.000;2024-01-16T09:58:17;11.13;;;6.40;;
3261;SDS011;1643;47.746;9.000;2024-01-16T10:00:45;10.63;;;5.53;;
3261;SDS011;1643;47.746;9.000;2024-01-16T10:03:12;8.33;;;5.20;;
3261;SDS011;1643;47.746;9.000;2024-01-16T10:05:42;12.30;;;5.90;;
3261;SDS011;1643;47.746;9.000;2024-01-16T10:08:09;8.57;;;5.60;;
3261;SDS011;1643;47.746;9.000;2024-01-16T10:10:35;9.00;;;4.80;;
3261;SDS011;1643;47.746;9.000;2024-01-16T10:13:00;7.00;;;4.30;;
3261;SDS011;1643;47.746;9.000;2024-01-16T10:15:26;7.27;;;4.40;;
3261;SDS011;1643;47.746;9.000;2024-01-16T10:17:52;9.43;;;6.30;;
3261;SDS011;1643;47.746;9.000;2024-01-16T10:20:19;6.80;;;5.00;;
3261;SDS011;1643;47.746;9.000;2024-01-16T10:22:57;8.20;;;4.63;;
3261;SDS011;1643;47.746;9.000;2024-01-16T10:25:23;7.03;;;4.30;;
3261;SDS011;1643;47.746;9.000;2024-01-16T10:27:49;6.90;;;4.70;;
3261;SDS011;1643;47.746;9.000;2024-01-16T10:30:28;7.67;;;4.10;;
3261;SDS011;1643;47.746;9.000;2024-01-16T10:32:54;6.60;;;4.40;;
3261;SDS011;1643;47.746;9.000;2024-01-16T10:35:20;6.73;;;4.83;;
3261;SDS011;1643;47.746;9.000;2024-01-16T10:37:46;9.83;;;5.40;;
3261;SDS011;1643;47.746;9.000;2024-01-16T10:40:17;5.03;;;4.50;;
3261;SDS011;1643;47.746;9.000;2024-01-16T10:42:44;8.73;;;5.03;;
3261;SDS011;1643;47.746;9.000;2024-01-16T10:45:17;7.33;;;4.50;;
3261;SDS011;1643;47.746;9.000;2024-01-16T10:47:44;6.97;;;4.90;;
3261;SDS011;1643;47.746;9.000;2024-01-16T10:50:11;5.47;;;3.97;;
3261;SDS011;1643;47.746;9.000;2024-01-16T10:52:38;7.47;;;4.83;;
3261;SDS011;1643;47.746;9.000;2024-01-16T10:55:11;6.43;;;3.80;;
3261;SDS011;1643;47.746;9.000;2024-01-16T10:57:45;5.27;;;4.37;;
3261;SDS011;1643;47.746;9.000;2024-01-16T11:00:12;10.70;;;4.40;;
3261;SDS011;1643;47.746;9.000;2024-01-16T11:02:46;7.20;;;4.67;;
3261;SDS011;1643;47.746;9.000;2024-01-16T11:05:16;10.53;;;5.70;;
3261;SDS011;1643;47.746;9.000;2024-01-16T11:07:42;8.27;;;4.83;;
3261;SDS011;1643;47.746;9.000;2024-01-16T11:10:09;7.50;;;4.70;;
3261;SDS011;1643;47.746;9.000;2024-01-16T11:12:35;4.97;;;4.00;;
3261;SDS011;1643;47.746;9.000;2024-01-16T11:15:04;5.83;;;3.73;;
3261;SDS011;1643;47.746;9.000;2024-01-16T11:17:33;6.40;;;4.83;;
3261;SDS011;1643;47.746;9.000;2024-01-16T11:19:59;7.63;;;4.47;;
3261;SDS011;1643;47.746;9.000;2024-01-16T11:22:26;5.00;;;3.40;;
3261;SDS011;1643;47.746;9.000;2024-01-16T11:25:11;8.70;;;5.10;;
3261;SDS011;1643;47.746;9.000;2024-01-16T11:27:39;6.00;;;4.43;;
3261;SDS011;1643;47.746;9.000;2024-01-16T11:30:07;6.43;;;4.30;;
3261;SDS011;1643;47.746;9.000;2024-01-16T11:32:40;10.50;;;5.10;;
3261;SDS011;1643;47.746;9.000;2024-01-16T11:35:07;5.33;;;4.27;;
3261;SDS011;1643;47.746;9.000;2024-01-16T11:37:34;5.43;;;3.67;;
3261;SDS011;1643;47.746;9.000;2024-01-16T11:42:46;4.80;;;3.90;;
3261;SDS011;1643;47.746;9.000;2024-01-16T11:45:47;6.37;;;3.93;;
3261;SDS011;1643;47.746;9.000;2024-01-16T11:50:37;4.80;;;3.67;;
3261;SDS011;1643;47.746;9.000;2024-01-16T11:53:03;6.93;;;5.00;;
3261;SDS011;1643;47.746;9.000;2024-01-16T11:55:30;4.47;;;2.90;;
3261;SDS011;1643;47.746;9.000;2024-01-16T12:01:22;10.60;;;4.97;;
3261;SDS011;1643;47.746;9.000;2024-01-16T12:04:06;7.90;;;5.37;;
3261;SDS011;1643;47.746;9.000;2024-01-16T12:06:36;5.93;;;4.13;;
3261;SDS011;1643;47.746;9.000;2024-01-16T12:09:12;6.97;;;4.30;;
3261;SDS011;1643;47.746;9.000;2024-01-16T12:11:42;6.93;;;4.10;;
3261;SDS011;1643;47.746;9.000;2024-01-16T12:14:10;5.83;;;4.10;;
3261;SDS011;1643;47.746;9.000;2024-01-16T12:16:37;4.47;;;4.00;;
3261;SDS011;1643;47.746;9.000;2024-01-16T12:19:06;7.13;;;3.80;;
3261;SDS011;1643;47.746;9.000;2024-01-16T12:21:39;5.67;;;4.00;;
3261;SDS011;1643;47.746;9.000;2024-01-16T12:24:11;8.10;;;4.13;;
3261;SDS011;1643;47.746;9.000;2024-01-16T12:26:37;9.07;;;4.17;;
3261;SDS011;1643;47.746;9.000;2024-01-16T12:29:04;6.37;;;3.77;;
3261;SDS011;1643;47.746;9.000;2024-01-16T12:31:30;9.83;;;3.33;;
3261;SDS011;1643;47.746;9.000;2024-01-16T12:34:06;4.23;;;3.43;;
3261;SDS011;1643;47.746;9.000;2024-01-16T12:36:32;5.47;;;3.60;;
3261;SDS011;1643;47.746;9.000;2024-01-16T12:38:58;5.90;;;3.70;;
3261;SDS011;1643;47.746;9.000;2024-01-16T12:41:24;8.20;;;4.37;;
3261;SDS011;1643;47.746;9.000;2024-01-16T12:43:53;8.00;;;3.90;;
3261;SDS011;1643;47.746;9.000;2024-01-16T12:46:19;5.30;;;3.60;;
3261;SDS011;1643;47.746;9.000;2024-01-16T12:48:45;6.70;;;4.60;;
3261;SDS011;1643;47.746;9.000;2024-01-16T12:51:16;6.87;;;4.53;;
3261;SDS011;1643;47.746;9.000;2024-01-16T12:53:46;7.23;;;4.47;;
3261;SDS011;1643;47.746;9.000;2024-01-16T12:56:12;9.53;;;5.43;;
3261;SDS011;1643;47.746;9.000;2024-01-16T12:58:38;7.33;;;5.00;;
3261;SDS011;1643;47.746;9.000;2024-01-16T13:01:24;4.87;;;3.50;;
3261;SDS011;1643;47.746;9.000;2024-01-16T13:03:51;5.23;;;3.60;;
3261;SDS011;1643;47.746;9.000;2024-01-16T13:06:18;5.80;;;3.87;;
3261;SDS011;1643;47.746;9.000;2024-01-16T13:08:45;8.60;;;4.90;;
3261;SDS011;1643;47.746;9.000;2024-01-16T13:11:12;6.07;;;3.60;;
3261;SDS011;1643;47.746;9.000;2024-01-16T13:13:41;6.53;;;4.20;;
3261;SDS011;1643;47.746;9.000;2024-01-16T13:16:07;4.90;;;4.00;;
3261;SDS011;1643;47.746;9.000;2024-01-16T13:18:33;7.00;;;4.27;;
3261;SDS011;1643;47.746;9.000;2024-01-16T13:20:59;5.53;;;4.00;;
3261;SDS011;1643;47.746;9.000;2024-01-16T13:23:26;5.20;;;4.10;;
3261;SDS011;1643;47.746;9.000;2024-01-16T13:25:53;10.00;;;5.50;;
3261;SDS011;1643;47.746;9.000;2024-01-16T13:28:24;9.10;;;5.50;;
3261;SDS011;1643;47.746;9.000;2024-01-16T13:30:50;5.60;;;4.20;;
3261;SDS011;1643;47.746;9.000;2024-01-16T13:33:17;11.60;;;7.10;;
3261;SDS011;1643;47.746;9.000;2024-01-16T13:35:43;6.90;;;5.10;;
3261;SDS011;1643;47.746;9.000;2024-01-16T13:38:14;8.90;;;5.70;;
3261;SDS011;1643;47.746;9.000;2024-01-16T13:40:41;5.60;;;4.20;;
3261;SDS011;1643;47.746;9.000;2024-01-16T13:43:07;6.80;;;4.20;;
3261;SDS011;1643;47.746;9.000;2024-01-16T13:45:33;8.17;;;4.67;;
3261;SDS011;1643;47.746;9.000;2024-01-16T13:48:03;7.00;;;4.97;;
3261;SDS011;1643;47.746;9.000;2024-01-16T13:50:31;5.90;;;4.70;;
3261;SDS011;1643;47.746;9.000;2024-01-16T13:52:58;8.90;;;4.93;;
3261;SDS011;1643;47.746;9.000;2024-01-16T13:55:24;7.73;;;5.20;;
3261;SDS011;1643;47.746;9.000;2024-01-16T13:57:49;9.07;;;5.57;;
3261;SDS011;1643;47.746;9.000;2024-01-16T14:00:15;8.50;;;5.57;;
3261;SDS011;1643;47.746;9.000;2024-01-16T14:02:42;9.20;;;6.07;;
3261;SDS011;1643;47.746;9.000;2024-01-16T14:05:13;6.87;;;4.70;;
3261;SDS011;1643;47.746;9.000;2024-01-16T14:07:45;8.67;;;5.40;;
3261;SDS011;1643;47.746;9.000;2024-01-16T14:10:13;7.00;;;4.77;;
3261;SDS011;1643;47.746;9.000;2024-01-16T14:12:40;8.67;;;5.70;;
3261;SDS011;1643;47.746;9.000;2024-01-16T14:15:10;6.83;;;5.17;;
3261;SDS011;1643;47.746;9.000;2024-01-16T14:20:14;9.27;;;6.20;;
3261;SDS011;1643;47.746;9.000;2024-01-16T14:22:41;7.33;;;4.63;;
3261;SDS011;1643;47.746;9.000;2024-01-16T14:25:09;10.43;;;6.00;;
3261;SDS011;1643;47.746;9.000;2024-01-16T14:27:40;7.97;;;5.17;;
3261;SDS011;1643;47.746;9.000;2024-01-16T14:30:07;6.30;;;4.40;;
3261;SDS011;1643;47.746;9.000;2024-01-16T14:32:38;7.20;;;4.70;;
3261;SDS011;1643;47.746;9.000;2024-01-16T14:35:12;7.43;;;5.43;;
3261;SDS011;1643;47.746;9.000;2024-01-16T14:37:38;6.97;;;5.43;;
3261;SDS011;1643;47.746;9.000;2024-01-16T14:40:05;8.10;;;5.30;;
3261;SDS011;1643;47.746;9.000;2024-01-16T14:42:37;7.37;;;5.53;;
3261;SDS011;1643;47.746;9.000;2024-01-16T14:45:04;8.50;;;5.47;;
3261;SDS011;1643;47.746;9.000;2024-01-16T14:47:30;9.63;;;5.37;;
3261;SDS011;1643;47.746;9.000;2024-01-16T14:49:56;12.63;;;5.70;;
3261;SDS011;1643;47.746;9.000;2024-01-16T14:52:22;10.10;;;5.80;;
3261;SDS011;1643;47.746;9.000;2024-01-16T14:54:48;7.50;;;4.60;;
3261;SDS011;1643;47.746;9.000;2024-01-16T14:57:15;7.67;;;5.60;;
3261;SDS011;1643;47.746;9.000;2024-01-16T14:59:41;7.77;;;6.10;;
3261;SDS011;1643;47.746;9.000;2024-01-16T15:02:07;11.27;;;7.03;;
3261;SDS011;1643;47.746;9.000;2024-01-16T15:04:41;8.67;;;5.53;;
3261;SDS011;1643;47.746;9.000;2024-01-16T15:07:08;8.27;;;5.00;;
3261;SDS011;1643;47.746;9.000;2024-01-16T15:09:34;8.10;;;5.60;;
3261;SDS011;1643;47.746;9.000;2024-01-16T15:12:06;8.47;;;5.50;;
3261;SDS011;1643;47.746;9.000;2024-01-16T15:14:32;9.20;;;5.60;;
3261;SDS011;1643;47.746;9.000;2024-01-16T15:16:59;7.13;;;5.17;;
3261;SDS011;1643;47.746;9.000;2024-01-16T15:19:26;6.23;;;5.20;;
3261;SDS011;1643;47.746;9.000;2024-01-16T15:21:52;7.60;;;5.60;;